Time;durP1;ratioP1;P1;durP2;ratioP2;P2;SDS_P1;SDS_P2;PMS_P1;PMS_P2;Temp;Humidity;BMP_temperature;BMP_pressure;BME280_temperature;BME280_humidity;BME280_pressure;Samples;Min_cycle;Max_cycle;Signal;HPM_P1;HPM_P2
2021/06/14 04:33:16;;;;;;;6.17;4.10;;;11.70;99.90;;;;;;4973182;22;21077;-75
2021/06/14 04:35:42;;;;;;;6.50;5.50;;;11.80;99.90;;;;;;4972062;28;20656;-76
2021/06/14 04:38:08;;;;;;;5.00;4.57;;;11.80;99.90;;;;;;4973996;28;20226;-76
2021/06/14 04:40:33;;;;;;;4.07;3.77;;;11.90;99.90;;;;;;4973927;28;20804;-75
2021/06/14 04:42:59;;;;;;;8.13;4.97;;;12.00;99.90;;;;;;4973540;28;20196;-75
2021/06/14 04:45:24;;;;;;;10.13;4.67;;;12.10;99.90;;;;;;4973692;28;20180;-73
2021/06/14 04:47:50;;;;;;;6.73;4.67;;;12.20;99.90;;;;;;4973877;28;20274;-74
2021/06/14 04:50:16;;;;;;;9.80;4.70;;;12.30;99.90;;;;;;4972768;28;20180;-73
2021/06/14 04:52:42;;;;;;;6.50;4.10;;;12.40;99.90;;;;;;4973564;28;20653;-72
2021/06/14 04:55:08;;;;;;;4.90;3.87;;;12.50;99.90;;;;;;4973793;28;20447;-73
2021/06/14 04:57:34;;;;;;;8.70;5.20;;;12.70;99.90;;;;;;4973894;28;20172;-72
2021/06/14 04:59:59;;;;;;;5.83;5.23;;;12.90;99.90;;;;;;4972834;28;20967;-73
2021/06/14 05:02:25;;;;;;;6.37;4.20;;;13.30;99.90;;;;;;4973226;28;20735;-72
2021/06/14 05:04:50;;;;;;;4.27;3.87;;;13.70;99.90;;;;;;4973585;28;20183;-72
2021/06/14 05:07:16;;;;;;;6.60;5.07;;;14.30;99.90;;;;;;4973517;28;20180;-72
2021/06/14 05:09:42;;;;;;;8.10;4.90;;;15.00;99.90;;;;;;4973409;28;20660;-72
2021/06/14 05:12:08;;;;;;;9.60;4.10;;;15.60;99.90;;;;;;4973229;28;20200;-72
2021/06/14 05:14:34;;;;;;;4.20;3.80;;;16.10;99.90;;;;;;4973446;28;20176;-73
2021/06/14 05:16:59;;;;;;;5.23;4.10;;;16.70;99.90;;;;;;4972201;28;20497;-72
2021/06/14 05:19:25;;;;;;;4.23;3.87;;;17.30;99.90;;;;;;4973261;28;20207;-73
2021/06/14 05:21:50;;;;;;;5.33;4.67;;;17.70;99.90;;;;;;4973171;28;20196;-73
2021/06/14 05:24:16;;;;;;;6.90;4.27;;;18.10;99.90;;;;;;4972748;28;20645;-73
2021/06/14 05:26:41;;;;;;;7.07;4.77;;;18.50;99.90;;;;;;4969221;28;20177;-72
2021/06/14 05:29:07;;;;;;;4.10;3.80;;;18.90;99.90;;;;;;4953768;28;20172;-73
2021/06/14 05:31:33;;;;;;;5.67;4.40;;;19.20;99.90;;;;;;4953213;28;20212;-75
2021/06/14 05:33:58;;;;;;;6.50;3.80;;;19.50;99.90;;;;;;4953556;28;20185;-74
2021/06/14 05:36:24;;;;;;;5.50;4.23;;;19.60;99.90;;;;;;4953676;28;20188;-73
2021/06/14 05:38:49;;;;;;;13.90;7.87;;;19.70;99.90;;;;;;4953675;28;20208;-74
2021/06/14 05:41:15;;;;;;;10.63;5.00;;;19.90;99.90;;;;;;4953850;28;20193;-73
2021/06/14 05:43:40;;;;;;;10.10;4.87;;;20.10;99.90;;;;;;4953673;28;20259;-75
2021/06/14 05:46:06;;;;;;;6.83;4.10;;;20.30;99.90;;;;;;4953653;28;20268;-74
2021/06/14 05:48:31;;;;;;;7.00;4.40;;;20.60;99.90;;;;;;4948365;28;20173;-74
2021/06/14 05:50:57;;;;;;;6.50;4.57;;;20.80;99.90;;;;;;4953402;28;20192;-74
2021/06/14 05:53:24;;;;;;;5.27;4.13;;;20.80;99.90;;;;;;4952924;28;20195;-75
2021/06/14 05:55:49;;;;;;;6.93;4.47;;;21.10;99.90;;;;;;4953637;28;20173;-75
2021/06/14 05:58:16;;;;;;;5.30;4.30;;;21.10;99.90;;;;;;4952767;28;20423;-74
2021/06/14 06:00:42;;;;;;;4.23;3.83;;;21.50;99.90;;;;;;4953151;28;20553;-74
2021/06/14 06:03:07;;;;;;;4.27;3.10;;;21.40;99.90;;;;;;4951875;28;20428;-74
2021/06/14 06:05:33;;;;;;;4.07;3.73;;;21.60;99.90;;;;;;4953175;28;20621;-74
2021/06/14 06:07:59;;;;;;;8.17;4.10;;;21.70;99.90;;;;;;4951843;28;20175;-71
2021/06/14 06:10:28;;;;;;;7.93;4.50;;;21.80;99.90;;;;;;4953194;28;20188;-72
2021/06/14 06:12:53;;;;;;;12.47;5.40;;;22.00;99.90;;;;;;4953211;28;20177;-74
2021/06/14 06:15:20;;;;;;;5.27;4.30;;;22.10;99.90;;;;;;4953169;28;21144;-74
2021/06/14 06:17:46;;;;;;;7.70;4.00;;;22.10;99.90;;;;;;4952991;28;20263;-75
2021/06/14 06:20:14;;;;;;;11.77;4.40;;;22.30;99.90;;;;;;4952281;28;20459;-72
2021/06/14 06:22:41;;;;;;;6.70;4.37;;;22.30;99.90;;;;;;4952959;28;20448;-73
2021/06/14 06:25:16;;;;;;;5.20;3.20;;;22.50;99.90;;;;;;4953042;28;20417;-74
2021/06/14 06:27:42;;;;;;;10.47;4.73;;;22.70;99.90;;;;;;4953118;28;20439;-74
2021/06/14 06:30:09;;;;;;;7.93;4.17;;;22.70;99.90;;;;;;4952977;28;20416;-75
2021/06/14 06:32:35;;;;;;;8.23;4.10;;;22.60;99.90;;;;;;4952728;28;20953;-72
2021/06/14 06:35:01;;;;;;;4.37;3.40;;;22.70;99.90;;;;;;4952974;28;20435;-74
2021/06/14 06:37:26;;;;;;;12.07;5.27;;;22.70;99.90;;;;;;4949316;28;20428;-73
2021/06/14 06:39:52;;;;;;;9.90;4.83;;;22.80;99.90;;;;;;4941050;28;20213;-74
2021/06/14 06:42:17;;;;;;;5.80;3.33;;;22.90;99.90;;;;;;4971352;28;20218;-74
2021/06/14 06:44:43;;;;;;;8.40;3.80;;;23.10;99.90;;;;;;4972057;28;20563;-74
2021/06/14 06:47:08;;;;;;;8.80;3.80;;;23.40;99.90;;;;;;4972584;28;20176;-73
2021/06/14 06:49:34;;;;;;;5.23;3.67;;;23.30;99.90;;;;;;4972226;28;20528;-74
2021/06/14 06:52:00;;;;;;;8.50;3.73;;;23.30;99.90;;;;;;4972109;28;20200;-73
2021/06/14 06:54:26;;;;;;;11.00;3.60;;;23.40;99.90;;;;;;4970588;28;20188;-74
2021/06/14 06:56:53;;;;;;;5.90;3.87;;;23.60;99.90;;;;;;4972416;28;20477;-74
2021/06/14 06:59:20;;;;;;;11.90;3.90;;;23.80;99.90;;;;;;4971795;28;20691;-73
2021/06/14 07:01:46;;;;;;;11.43;4.73;;;23.80;99.90;;;;;;4972205;28;20874;-74
2021/06/14 07:04:11;;;;;;;9.27;5.63;;;23.80;99.90;;;;;;4971607;28;20450;-72
2021/06/14 07:06:37;;;;;;;10.47;4.40;;;23.50;99.90;;;;;;4968536;28;20207;-74
2021/06/14 07:09:04;;;;;;;12.63;3.83;;;23.70;99.90;;;;;;4970644;28;20188;-73
2021/06/14 07:11:30;;;;;;;9.57;4.20;;;24.10;99.90;;;;;;4970851;28;20204;-74
2021/06/14 07:13:57;;;;;;;8.80;3.83;;;23.90;99.90;;;;;;4974620;28;20420;-73
2021/06/14 07:16:23;;;;;;;6.13;3.40;;;23.80;99.90;;;;;;4970635;28;20885;-73
2021/06/14 07:18:50;;;;;;;4.80;4.07;;;23.80;99.90;;;;;;4956304;28;20499;-74
2021/06/14 07:21:15;;;;;;;6.13;3.93;;;23.90;99.90;;;;;;4955754;28;20448;-73
2021/06/14 07:23:41;;;;;;;10.67;3.97;;;23.90;99.90;;;;;;4955773;28;20412;-74
2021/06/14 07:26:08;;;;;;;7.80;3.80;;;24.30;99.90;;;;;;4954510;28;20268;-74
2021/06/14 07:28:34;;;;;;;7.80;3.67;;;24.50;99.90;;;;;;4956206;28;20496;-74
2021/06/14 07:31:01;;;;;;;10.90;4.20;;;24.60;99.90;;;;;;4955902;28;20507;-74
2021/06/14 07:33:26;;;;;;;9.07;3.70;;;24.80;99.90;;;;;;4956069;28;20661;-74
2021/06/14 07:35:52;;;;;;;5.40;3.43;;;24.90;99.90;;;;;;4955965;28;20480;-73
2021/06/14 07:38:18;;;;;;;5.40;3.17;;;25.40;99.90;;;;;;4955725;28;20224;-74
2021/06/14 07:40:44;;;;;;;6.80;3.40;;;25.40;99.90;;;;;;4955741;28;20288;-74
2021/06/14 07:43:12;;;;;;;3.00;2.53;;;25.60;99.90;;;;;;4955439;28;20180;-74
2021/06/14 07:45:39;;;;;;;4.67;2.80;;;25.20;99.90;;;;;;4955711;28;20180;-73
2021/06/14 07:48:05;;;;;;;8.57;3.20;;;25.20;99.90;;;;;;4955653;29;20443;-73
2021/06/14 07:50:32;;;;;;;7.17;2.70;;;25.20;99.90;;;;;;4955633;28;20441;-73
2021/06/14 07:52:57;;;;;;;3.77;3.20;;;25.30;99.90;;;;;;4954015;28;20176;-73
2021/06/14 07:55:23;;;;;;;8.00;3.50;;;25.20;99.90;;;;;;4936022;29;20417;-74
2021/06/14 07:57:49;;;;;;;4.57;2.97;;;25.20;99.90;;;;;;4935061;29;20181;-74
2021/06/14 08:00:15;;;;;;;4.30;2.50;;;25.20;99.90;;;;;;4935950;29;20205;-73
2021/06/14 08:02:40;;;;;;;5.30;2.60;;;25.30;99.90;;;;;;4935696;29;20201;-74
2021/06/14 08:05:07;;;;;;;2.83;2.30;;;25.50;99.90;;;;;;4935803;29;20420;-75
2021/06/14 08:07:34;;;;;;;5.00;2.80;;;25.90;99.90;;;;;;4937063;29;20188;-76
2021/06/14 08:10:03;;;;;;;6.87;3.43;;;26.10;99.90;;;;;;4936762;29;20765;-76
2021/06/14 08:12:34;;;;;;;2.87;2.50;;;26.00;99.90;;;;;;4935179;29;20449;-75
2021/06/14 08:15:00;;;;;;;5.63;2.40;;;26.00;99.90;;;;;;4936269;29;20432;-75
2021/06/14 08:17:28;;;;;;;2.83;1.90;;;26.20;99.90;;;;;;4936720;29;20427;-76
2021/06/14 08:19:58;;;;;;;7.33;2.87;;;26.60;99.40;;;;;;4936702;29;20460;-76
2021/06/14 08:25:10;;;;;;;4.37;2.60;;;26.20;99.40;;;;;;4935790;29;20412;-75
2021/06/14 08:27:38;;;;;;;3.77;2.47;;;26.70;99.00;;;;;;4936534;29;20506;-75
2021/06/14 08:30:10;;;;;;;7.00;2.70;;;26.90;98.40;;;;;;4937102;29;20445;-76
2021/06/14 08:32:37;;;;;;;2.70;2.47;;;27.10;99.10;;;;;;4936494;29;20495;-75
2021/06/14 08:35:05;;;;;;;5.13;2.37;;;27.40;98.90;;;;;;4936227;29;20464;-75
2021/06/14 08:37:30;;;;;;;2.93;2.73;;;27.50;98.20;;;;;;4936277;29;20409;-76
2021/06/14 08:39:56;;;;;;;8.30;2.33;;;27.60;98.20;;;;;;4936426;29;20453;-77
2021/06/14 08:42:21;;;;;;;4.93;2.30;;;27.40;98.00;;;;;;4936321;29;20804;-76
2021/06/14 08:44:47;;;;;;;3.03;2.13;;;27.60;97.00;;;;;;4936266;29;20169;-76
2021/06/14 08:47:14;;;;;;;4.23;2.10;;;27.70;97.00;;;;;;4936198;29;20189;-76
2021/06/14 08:49:42;;;;;;;5.53;3.00;;;27.00;97.00;;;;;;4935433;29;20650;-76
2021/06/14 08:52:08;;;;;;;8.27;2.30;;;26.90;98.00;;;;;;4934569;29;20536;-75
2021/06/14 08:54:37;;;;;;;2.73;2.03;;;27.10;97.60;;;;;;4935972;29;20421;-76
2021/06/14 08:57:04;;;;;;;3.23;2.60;;;27.30;96.70;;;;;;4936308;29;20185;-76
2021/06/14 08:59:29;;;;;;;3.20;2.90;;;27.30;97.50;;;;;;4935886;29;20527;-76
2021/06/14 09:01:55;;;;;;;6.77;2.60;;;27.90;98.10;;;;;;4935817;29;20918;-76
2021/06/14 09:04:20;;;;;;;4.20;2.23;;;28.30;96.00;;;;;;4935306;29;20187;-76
2021/06/14 09:06:46;;;;;;;14.73;3.00;;;28.60;95.70;;;;;;4935698;29;20189;-77
2021/06/14 09:09:12;;;;;;;4.50;3.30;;;28.70;95.40;;;;;;4935618;29;20182;-76
2021/06/14 09:11:50;;;;;;;6.07;2.93;;;28.70;96.00;;;;;;4935525;29;20437;-76
2021/06/14 09:14:21;;;;;;;6.47;3.20;;;28.50;95.80;;;;;;4935610;29;20413;-76
2021/06/14 09:16:49;;;;;;;3.20;2.47;;;28.50;95.40;;;;;;4935703;29;20417;-76
2021/06/14 09:19:26;;;;;;;7.47;2.33;;;28.40;95.10;;;;;;4918685;29;21044;-75
2021/06/14 09:21:55;;;;;;;4.93;2.50;;;28.50;95.90;;;;;;4934822;29;20892;-75
2021/06/14 09:24:25;;;;;;;4.90;2.43;;;28.80;96.50;;;;;;4918451;29;20472;-75
2021/06/14 09:26:51;;;;;;;3.93;2.17;;;29.40;96.50;;;;;;4934474;29;20516;-76
2021/06/14 09:29:24;;;;;;;4.63;2.67;;;29.70;93.50;;;;;;4935554;29;20500;-75
2021/06/14 09:31:58;;;;;;;8.83;3.20;;;29.60;93.00;;;;;;4935449;29;20590;-76
2021/06/14 09:34:46;;;;;;;2.80;1.83;;;29.60;92.40;;;;;;4935159;29;20434;-76
2021/06/14 09:37:15;;;;;;;2.80;2.30;;;29.70;93.10;;;;;;4935134;29;20417;-77
2021/06/14 09:39:43;;;;;;;5.97;2.40;;;29.80;93.30;;;;;;4940219;28;20973;-76
2021/06/14 09:42:20;;;;;;;5.67;2.63;;;30.00;93.00;;;;;;4954263;28;20441;-76
2021/06/14 09:44:48;;;;;;;2.70;2.50;;;30.60;92.40;;;;;;4953814;28;20498;-76
2021/06/14 09:47:15;;;;;;;4.90;2.20;;;30.80;92.00;;;;;;4953638;28;20436;-76
2021/06/14 09:49:54;;;;;;;6.13;2.80;;;30.70;93.40;;;;;;4954027;28;20969;-76
2021/06/14 09:52:22;;;;;;;3.50;2.50;;;31.40;92.10;;;;;;4953544;28;20829;-76
2021/06/14 09:54:48;;;;;;;6.20;2.70;;;32.10;92.40;;;;;;4953900;28;20409;-76
2021/06/14 09:57:27;;;;;;;2.07;1.97;;;31.80;88.40;;;;;;4953642;28;20756;-76
2021/06/14 09:59:53;;;;;;;3.30;2.10;;;32.00;91.00;;;;;;4953935;28;20235;-76
2021/06/14 10:02:20;;;;;;;5.30;2.40;;;32.40;90.00;;;;;;4953649;28;20444;-76
2021/06/14 10:04:53;;;;;;;6.43;2.20;;;33.00;87.60;;;;;;4953635;28;20196;-76
2021/06/14 10:07:21;;;;;;;6.23;2.10;;;33.30;86.10;;;;;;4953460;28;20511;-76
2021/06/14 10:09:49;;;;;;;2.63;1.70;;;33.50;83.20;;;;;;4954874;28;20479;-76
2021/06/14 10:12:26;;;;;;;3.43;1.93;;;33.00;83.30;;;;;;4953365;28;20543;-77
2021/06/14 10:15:03;;;;;;;3.60;2.17;;;32.80;81.50;;;;;;4953480;28;20419;-77
2021/06/14 10:17:33;;;;;;;3.53;1.97;;;32.80;81.10;;;;;;4953316;29;20483;-76
2021/06/14 10:20:28;;;;;;;2.20;1.80;;;32.70;80.70;;;;;;4953466;28;20492;-75
2021/06/14 10:22:59;;;;;;;2.60;2.30;;;32.30;79.00;;;;;;4948824;28;20460;-76
2021/06/14 10:25:26;;;;;;;3.63;1.97;;;32.50;83.10;;;;;;4953533;28;20788;-75
2021/06/14 10:27:53;;;;;;;2.53;2.10;;;32.80;78.80;;;;;;4952270;28;20440;-76
2021/06/14 10:30:20;;;;;;;2.07;1.80;;;32.70;77.00;;;;;;4953080;28;20424;-76
2021/06/14 10:32:47;;;;;;;3.40;2.40;;;32.60;77.60;;;;;;4952925;28;20460;-76
2021/06/14 10:35:17;;;;;;;2.27;1.77;;;32.50;79.20;;;;;;4953011;28;20477;-76
2021/06/14 10:37:53;;;;;;;3.00;2.17;;;31.70;77.80;;;;;;4953266;28;20431;-76
2021/06/14 10:40:26;;;;;;;5.40;2.93;;;31.30;79.10;;;;;;4953138;28;20455;-76
2021/06/14 10:42:53;;;;;;;3.77;1.97;;;31.30;79.10;;;;;;4953265;28;20567;-76
2021/06/14 10:45:24;;;;;;;2.30;2.10;;;31.20;80.30;;;;;;4953067;28;20412;-75
2021/06/14 10:47:50;;;;;;;3.90;1.90;;;31.30;80.90;;;;;;4955746;28;20790;-76
2021/06/14 10:50:24;;;;;;;2.60;1.80;;;31.90;79.90;;;;;;4958568;28;20424;-76
2021/06/14 10:52:49;;;;;;;4.30;2.23;;;32.00;77.00;;;;;;4957675;28;20439;-76
2021/06/14 10:55:18;;;;;;;3.13;1.90;;;31.80;79.40;;;;;;4956947;28;20420;-76
2021/06/14 10:57:44;;;;;;;4.27;2.20;;;31.80;76.40;;;;;;4957547;28;20185;-76
2021/06/14 11:00:25;;;;;;;2.63;2.23;;;31.50;76.80;;;;;;4957023;28;20580;-76
2021/06/14 11:03:04;;;;;;;3.20;2.23;;;30.90;77.10;;;;;;4957122;28;20443;-76
2021/06/14 11:05:43;;;;;;;2.20;2.00;;;30.80;80.00;;;;;;4956501;28;20467;-76
2021/06/14 11:08:15;;;;;;;1.80;1.70;;;31.00;83.60;;;;;;4957214;28;20416;-76
2021/06/14 11:10:42;;;;;;;2.13;1.93;;;31.10;79.60;;;;;;4957963;28;20507;-76
2021/06/14 11:13:10;;;;;;;2.83;2.20;;;31.40;79.30;;;;;;4956443;28;20420;-76
2021/06/14 11:15:37;;;;;;;3.80;1.87;;;31.20;80.10;;;;;;4957201;28;20420;-76
2021/06/14 11:18:06;;;;;;;5.07;2.40;;;30.80;79.50;;;;;;4956919;28;20428;-76
2021/06/14 11:20:37;;;;;;;1.80;1.60;;;30.60;79.70;;;;;;4956296;28;20608;-76
2021/06/14 11:23:05;;;;;;;4.20;2.00;;;30.80;81.70;;;;;;4956448;28;20416;-76
2021/06/14 11:25:41;;;;;;;2.33;2.20;;;30.60;78.50;;;;;;4956403;28;20479;-77
2021/06/14 11:28:10;;;;;;;4.00;1.93;;;31.00;78.50;;;;;;4956505;28;20799;-77
2021/06/14 11:30:38;;;;;;;1.80;1.60;;;30.60;78.50;;;;;;4956535;28;20416;-76
2021/06/14 11:33:07;;;;;;;4.30;2.27;;;30.60;81.10;;;;;;4956123;28;20442;-76
2021/06/14 11:35:34;;;;;;;7.27;2.07;;;30.50;76.90;;;;;;4956191;28;20505;-75
2021/06/14 11:38:04;;;;;;;4.03;2.43;;;29.80;78.70;;;;;;4957149;28;20487;-75
2021/06/14 11:40:35;;;;;;;6.13;2.27;;;29.70;79.50;;;;;;4956489;28;20452;-75
2021/06/14 11:43:12;;;;;;;4.20;2.77;;;29.70;81.30;;;;;;4956561;28;20420;-75
2021/06/14 11:45:45;;;;;;;4.43;2.40;;;29.50;81.30;;;;;;4956512;28;20415;-76
2021/06/14 11:48:31;;;;;;;3.90;1.90;;;29.50;82.20;;;;;;4956653;28;20442;-75
2021/06/14 11:51:09;;;;;;;4.40;2.30;;;29.60;81.60;;;;;;4957251;28;20480;-76
2021/06/14 11:53:41;;;;;;;5.07;2.00;;;29.60;84.00;;;;;;4955986;28;20531;-76
2021/06/14 11:56:10;;;;;;;1.73;1.60;;;29.20;80.20;;;;;;4955723;28;20425;-75
2021/06/14 11:58:36;;;;;;;1.70;1.60;;;28.90;79.70;;;;;;4955513;28;20769;-76
2021/06/14 12:01:05;;;;;;;3.83;1.70;;;28.80;81.30;;;;;;4955987;28;20492;-76
2021/06/14 12:03:31;;;;;;;4.83;2.30;;;29.20;82.00;;;;;;4955525;28;20776;-75
2021/06/14 12:05:56;;;;;;;5.90;2.40;;;29.40;80.60;;;;;;4955909;28;20471;-76
2021/06/14 12:08:24;;;;;;;3.00;2.10;;;29.60;78.90;;;;;;4955813;28;20184;-76
2021/06/14 12:10:53;;;;;;;3.60;2.00;;;29.70;80.70;;;;;;4955562;28;20216;-74
2021/06/14 12:13:19;;;;;;;8.87;2.23;;;29.90;81.50;;;;;;4954443;28;20431;-73
2021/06/14 12:15:49;;;;;;;2.00;1.80;;;29.70;79.20;;;;;;4955317;28;20425;-74
2021/06/14 12:18:15;;;;;;;3.10;1.70;;;29.70;78.80;;;;;;4955154;28;20464;-73
2021/06/14 12:20:47;;;;;;;15.27;2.53;;;29.30;78.70;;;;;;4954911;28;21064;-74
2021/06/14 12:23:15;;;;;;;7.40;1.70;;;29.10;79.30;;;;;;4955023;28;20409;-73
2021/06/14 12:25:46;;;;;;;3.33;2.10;;;29.00;79.70;;;;;;4955090;28;20413;-73
2021/06/14 12:28:14;;;;;;;2.30;1.60;;;28.80;80.20;;;;;;4954876;28;20432;-72
2021/06/14 12:30:41;;;;;;;2.60;2.03;;;28.70;79.60;;;;;;4954903;28;20452;-71
2021/06/14 12:33:07;;;;;;;2.00;1.80;;;28.60;78.40;;;;;;4953276;28;20538;-73
2021/06/14 12:35:33;;;;;;;2.07;1.70;;;28.70;83.10;;;;;;4954781;28;20504;-73
2021/06/14 12:38:10;;;;;;;1.77;1.67;;;28.50;78.30;;;;;;4954696;28;20181;-74
2021/06/14 12:40:37;;;;;;;2.27;1.70;;;28.40;78.90;;;;;;4954628;28;20247;-75
2021/06/14 12:43:06;;;;;;;2.27;2.00;;;28.10;79.30;;;;;;4954469;28;20421;-75
2021/06/14 12:45:33;;;;;;;4.70;1.83;;;28.00;80.20;;;;;;4953181;28;20431;-76
2021/06/14 12:48:03;;;;;;;2.53;1.77;;;28.10;79.40;;;;;;4954596;28;20412;-76
2021/06/14 12:50:30;;;;;;;3.40;2.20;;;28.30;82.80;;;;;;4953362;29;20460;-72
2021/06/14 12:52:59;;;;;;;5.80;1.80;;;28.50;80.30;;;;;;4954621;28;20431;-74
2021/06/14 12:55:27;;;;;;;3.07;2.77;;;28.40;77.00;;;;;;4954472;28;20420;-74
2021/06/14 12:57:53;;;;;;;2.20;1.70;;;28.30;77.90;;;;;;4954665;28;20430;-73
2021/06/14 13:00:28;;;;;;;2.70;2.03;;;28.10;78.60;;;;;;4954369;28;20471;-72
2021/06/14 13:02:56;;;;;;;3.53;1.87;;;27.90;78.70;;;;;;4954365;28;20547;-74
2021/06/14 13:05:29;;;;;;;2.70;1.67;;;27.80;78.30;;;;;;4954197;28;20422;-73
2021/06/14 13:08:07;;;;;;;2.40;1.63;;;27.70;79.00;;;;;;4954258;28;20496;-73
2021/06/14 13:10:41;;;;;;;1.77;1.60;;;27.70;76.90;;;;;;4953434;28;20985;-74
2021/06/14 13:13:24;;;;;;;1.53;1.43;;;27.70;78.20;;;;;;4954211;28;20479;-74
2021/06/14 13:15:52;;;;;;;2.17;1.97;;;27.90;76.10;;;;;;4954133;28;20503;-74
2021/06/14 13:18:19;;;;;;;3.00;1.37;;;27.90;78.00;;;;;;4954539;28;20416;-76
2021/06/14 13:20:48;;;;;;;2.40;1.60;;;27.80;76.00;;;;;;4954047;28;20555;-76
2021/06/14 13:23:22;;;;;;;2.60;1.80;;;27.60;77.00;;;;;;4953779;28;20429;-76
2021/06/14 13:25:53;;;;;;;3.60;2.20;;;27.50;79.30;;;;;;4953886;28;20447;-75
2021/06/14 13:28:42;;;;;;;6.37;2.30;;;27.60;83.70;;;;;;4954032;28;20603;-75
2021/06/14 13:31:24;;;;;;;3.83;1.50;;;27.80;78.10;;;;;;4953816;28;20468;-73
2021/06/14 13:34:07;;;;;;;1.80;1.40;;;27.90;78.20;;;;;;4953940;28;20511;-72
2021/06/14 13:36:37;;;;;;;2.30;1.33;;;27.90;75.60;;;;;;4953638;28;20806;-73
2021/06/14 13:39:07;;;;;;;2.93;1.63;;;27.80;77.30;;;;;;4953955;28;20427;-73
2021/06/14 13:41:33;;;;;;;2.20;1.90;;;27.60;77.90;;;;;;4954094;28;20942;-72
2021/06/14 13:44:11;;;;;;;3.73;1.47;;;27.60;80.30;;;;;;4953690;28;20409;-73
2021/06/14 13:46:45;;;;;;;4.80;1.70;;;27.60;83.20;;;;;;4953885;28;20424;-73
2021/06/14 13:49:23;;;;;;;3.40;1.90;;;27.60;79.60;;;;;;4953565;28;20421;-72
2021/06/14 13:52:18;;;;;;;2.33;2.13;;;27.70;83.50;;;;;;4953678;28;20900;-71
2021/06/14 13:54:56;;;;;;;3.20;1.83;;;27.90;83.60;;;;;;4948734;28;20854;-72
2021/06/14 13:57:22;;;;;;;3.30;1.37;;;27.90;80.00;;;;;;4953522;28;20475;-72
2021/06/14 13:59:48;;;;;;;4.33;1.73;;;27.90;79.90;;;;;;4953454;28;20468;-72
2021/06/14 14:02:31;;;;;;;4.80;1.80;;;27.90;82.80;;;;;;4953351;28;20208;-73
2021/06/14 14:04:58;;;;;;;2.33;2.10;;;27.90;84.10;;;;;;4953198;28;20187;-73
2021/06/14 14:07:24;;;;;;;3.73;1.77;;;28.00;81.50;;;;;;4953361;28;20423;-74
2021/06/14 14:09:50;;;;;;;3.17;1.60;;;28.00;82.50;;;;;;4953440;28;20416;-73
2021/06/14 14:12:15;;;;;;;4.10;2.93;;;28.00;83.60;;;;;;4953183;28;20681;-73
2021/06/14 14:14:41;;;;;;;6.70;2.40;;;28.00;83.90;;;;;;4953138;28;20187;-72
2021/06/14 14:17:06;;;;;;;1.67;1.53;;;27.90;82.20;;;;;;4953327;28;20192;-71
2021/06/14 14:19:35;;;;;;;2.13;2.03;;;28.00;85.40;;;;;;4954755;28;20278;-72
2021/06/14 14:22:03;;;;;;;3.50;1.63;;;28.10;82.80;;;;;;4956692;28;20192;-73
2021/06/14 14:24:28;;;;;;;3.57;1.60;;;28.00;82.00;;;;;;4959708;28;20420;-72
2021/06/14 14:26:57;;;;;;;2.00;1.50;;;27.80;82.80;;;;;;4959804;28;20412;-73
2021/06/14 14:29:31;;;;;;;2.43;1.70;;;27.80;84.40;;;;;;4959932;28;20195;-72
2021/06/14 14:32:00;;;;;;;1.90;1.80;;;27.80;83.50;;;;;;4958413;28;20965;-75
2021/06/14 14:34:47;;;;;;;5.37;2.17;;;27.80;83.70;;;;;;4958977;28;20424;-74
2021/06/14 14:37:24;;;;;;;5.90;1.63;;;27.80;83.30;;;;;;4960700;28;20412;-73
2021/06/14 14:40:06;;;;;;;5.57;2.90;;;27.70;84.40;;;;;;4959604;28;20463;-73
2021/06/14 14:42:34;;;;;;;4.80;4.27;;;27.70;83.90;;;;;;4955962;28;20435;-73
2021/06/14 14:45:01;;;;;;;2.67;1.93;;;27.60;84.20;;;;;;4950226;28;20427;-73
2021/06/14 14:47:26;;;;;;;2.87;1.80;;;27.60;85.30;;;;;;4958320;28;20412;-74
2021/06/14 14:49:52;;;;;;;3.50;2.23;;;27.60;85.00;;;;;;4959051;28;20451;-74
2021/06/14 14:52:24;;;;;;;1.87;1.77;;;27.50;85.80;;;;;;4958508;28;20200;-74
2021/06/14 14:54:54;;;;;;;2.37;2.10;;;27.60;86.40;;;;;;4959032;28;20185;-73
2021/06/14 14:57:22;;;;;;;3.10;2.00;;;27.60;86.00;;;;;;4959116;28;20408;-71
2021/06/14 14:59:47;;;;;;;1.80;1.70;;;27.50;84.80;;;;;;4960189;28;20976;-74
2021/06/14 15:02:13;;;;;;;3.90;2.13;;;27.50;85.30;;;;;;4958366;28;20440;-74
2021/06/14 15:04:39;;;;;;;3.47;2.40;;;27.40;84.00;;;;;;4958262;28;20180;-73
2021/06/14 15:07:06;;;;;;;2.40;1.60;;;27.40;84.60;;;;;;4958836;28;20305;-73
2021/06/14 15:09:33;;;;;;;3.13;2.50;;;27.40;84.80;;;;;;4959061;28;20815;-74
2021/06/14 15:11:59;;;;;;;3.40;2.03;;;27.30;84.60;;;;;;4958577;28;20526;-73
2021/06/14 15:14:24;;;;;;;5.60;2.70;;;27.20;84.60;;;;;;4958858;28;20507;-74
2021/06/14 15:16:50;;;;;;;4.33;1.70;;;27.20;85.30;;;;;;4958622;28;20671;-74
2021/06/14 15:19:15;;;;;;;2.70;1.77;;;27.10;84.90;;;;;;4958897;28;20204;-74
2021/06/14 15:21:41;;;;;;;5.17;2.27;;;27.10;86.50;;;;;;4958460;28;20204;-75
2021/06/14 15:24:06;;;;;;;2.30;2.10;;;27.10;85.60;;;;;;4958656;28;20176;-75
2021/06/14 15:26:32;;;;;;;3.60;1.77;;;27.10;85.00;;;;;;4958872;28;20184;-75
2021/06/14 15:28:57;;;;;;;2.80;1.50;;;27.10;86.40;;;;;;4958620;28;20173;-75
2021/06/14 15:31:25;;;;;;;7.27;2.00;;;27.10;85.90;;;;;;4958853;28;20267;-74
2021/06/14 15:33:58;;;;;;;5.63;2.33;;;27.10;85.70;;;;;;4955583;28;20180;-73
2021/06/14 15:36:25;;;;;;;3.27;1.70;;;27.20;86.70;;;;;;4955858;28;20425;-74
2021/06/14 15:38:52;;;;;;;2.30;2.10;;;27.20;85.60;;;;;;4955537;28;20419;-73
2021/06/14 15:41:21;;;;;;;2.00;1.80;;;27.20;85.90;;;;;;4955782;28;20440;-73
2021/06/14 15:43:48;;;;;;;6.73;2.87;;;27.10;85.80;;;;;;4955369;28;20420;-74
2021/06/14 15:46:13;;;;;;;2.47;1.67;;;27.00;86.90;;;;;;4955571;28;20427;-74
2021/06/14 15:48:39;;;;;;;2.60;1.73;;;27.00;87.90;;;;;;4955640;28;20503;-72
2021/06/14 15:51:04;;;;;;;2.27;1.80;;;27.00;87.60;;;;;;4955740;28;20205;-73
2021/06/14 15:53:30;;;;;;;1.40;1.40;;;27.00;87.40;;;;;;4955397;28;20189;-73
2021/06/14 15:55:56;;;;;;;2.40;2.20;;;27.00;87.20;;;;;;4953534;28;20255;-72
2021/06/14 15:58:21;;;;;;;5.50;2.10;;;27.00;87.60;;;;;;4936467;29;20658;-73
2021/06/14 16:00:47;;;;;;;3.10;1.80;;;27.10;88.00;;;;;;4936105;29;20213;-74
2021/06/14 16:03:12;;;;;;;3.10;2.20;;;27.10;86.50;;;;;;4936063;29;20169;-74
2021/06/14 16:05:38;;;;;;;2.00;1.60;;;27.10;87.50;;;;;;4936010;29;20184;-74
2021/06/14 16:08:05;;;;;;;2.60;1.83;;;27.10;87.50;;;;;;4936424;29;20174;-74
2021/06/14 16:10:31;;;;;;;2.03;1.63;;;27.10;86.50;;;;;;4934962;29;20181;-72
2021/06/14 16:12:56;;;;;;;2.90;1.97;;;27.00;87.00;;;;;;4935902;29;20425;-74
2021/06/14 16:15:22;;;;;;;3.27;1.50;;;27.00;87.40;;;;;;4934807;29;20189;-74
2021/06/14 16:17:48;;;;;;;1.77;1.67;;;27.00;86.70;;;;;;4936027;29;21587;-74
2021/06/14 16:20:15;;;;;;;2.60;2.37;;;27.00;88.00;;;;;;4935997;29;20216;-73
2021/06/14 16:22:42;;;;;;;3.60;3.30;;;27.00;88.30;;;;;;4935732;29;20469;-72
2021/06/14 16:25:10;;;;;;;2.23;2.13;;;26.90;87.10;;;;;;4935885;29;20443;-71
2021/06/14 16:27:40;;;;;;;3.73;2.43;;;26.90;88.10;;;;;;4935970;29;20410;-72
2021/06/14 16:30:08;;;;;;;8.63;2.40;;;26.90;87.50;;;;;;4935902;29;20425;-74
2021/06/14 16:32:34;;;;;;;2.60;1.70;;;26.80;87.90;;;;;;4935424;29;20553;-73
2021/06/14 16:35:00;;;;;;;3.27;2.67;;;26.80;87.80;;;;;;4935527;29;20875;-74
2021/06/14 16:37:26;;;;;;;1.73;1.63;;;26.80;87.40;;;;;;4935802;29;20196;-73
2021/06/14 16:39:51;;;;;;;4.60;1.53;;;26.80;87.00;;;;;;4935502;29;20464;-73
2021/06/14 16:42:18;;;;;;;9.40;2.43;;;26.70;87.40;;;;;;4934223;29;20196;-73
2021/06/14 16:44:43;;;;;;;4.33;2.03;;;26.80;87.70;;;;;;4934019;29;20177;-74
2021/06/14 16:47:09;;;;;;;2.50;2.30;;;26.70;87.20;;;;;;4935436;29;20416;-72
2021/06/14 16:49:35;;;;;;;2.13;1.93;;;26.70;87.70;;;;;;4935333;29;20182;-73
2021/06/14 16:52:01;;;;;;;2.83;1.53;;;26.70;86.70;;;;;;4935644;29;20702;-74
2021/06/14 16:54:27;;;;;;;3.47;2.10;;;26.70;87.20;;;;;;4935245;29;20189;-73
2021/06/14 16:56:53;;;;;;;3.33;1.77;;;26.60;88.00;;;;;;4935131;29;20188;-73
2021/06/14 16:59:19;;;;;;;3.27;1.97;;;26.50;88.60;;;;;;4935314;29;20464;-74
2021/06/14 17:01:46;;;;;;;6.47;1.90;;;26.50;88.20;;;;;;4933777;29;20194;-73
2021/06/14 17:04:13;;;;;;;2.70;2.13;;;26.40;87.90;;;;;;4935002;29;20476;-73
2021/06/14 17:06:42;;;;;;;3.23;1.50;;;26.40;88.60;;;;;;4935105;29;20448;-73
2021/06/14 17:09:09;;;;;;;5.70;1.37;;;26.40;87.30;;;;;;4949406;28;20420;-73
2021/06/14 17:11:35;;;;;;;2.90;1.60;;;26.40;87.60;;;;;;4954098;28;20922;-73
2021/06/14 17:14:01;;;;;;;4.67;2.10;;;26.40;86.60;;;;;;4953761;28;20420;-74
2021/06/14 17:16:27;;;;;;;2.30;2.00;;;26.40;87.00;;;;;;4954067;28;20418;-73
2021/06/14 17:18:52;;;;;;;4.53;1.80;;;26.40;87.20;;;;;;4952659;28;20698;-73
2021/06/14 17:21:18;;;;;;;4.80;1.27;;;26.30;87.70;;;;;;4953063;28;20312;-73
2021/06/14 17:23:44;;;;;;;2.40;1.50;;;26.30;87.70;;;;;;4953372;28;20173;-72
2021/06/14 17:26:10;;;;;;;1.97;1.87;;;26.30;88.60;;;;;;4953923;28;20194;-73